Time;durP1;ratioP1;P1;durP2;ratioP2;P2;SDS_P1;SDS_P2;PMS_P1;PMS_P2;Temp;Humidity;BMP_temperature;BMP_pressure;BME280_temperature;BME280_humidity;BME280_pressure;Samples;Min_cycle;Max_cycle;Signal;HPM_P1;HPM_P2
2023/10/15 00:00:51;;;;;;;4.60;1.40;;;9.70;99.90;;;-141.84;70.11;19750.84;5018897;28;20252;-70
2023/10/15 00:03:26;;;;;;;3.90;1.50;;;9.70;99.90;;;-141.84;70.95;19781.31;5014069;28;20253;-71
2023/10/15 00:05:54;;;;;;;5.13;1.77;;;9.40;99.90;;;-141.84;70.38;19767.09;5003377;28;20230;-70
2023/10/15 00:08:22;;;;;;;4.50;1.50;;;9.60;99.90;;;-141.84;71.20;19750.84;5012900;28;20202;-70
2023/10/15 00:10:52;;;;;;;6.43;1.60;;;9.50;99.90;;;-141.84;71.26;19718.31;5022291;28;20264;-70
2023/10/15 00:13:20;;;;;;;3.33;1.47;;;9.50;99.90;;;-141.84;69.75;19761.00;5014035;28;20600;-70
2023/10/15 00:15:48;;;;;;;8.43;1.80;;;9.50;99.90;;;-141.84;70.22;19748.81;5022503;28;20237;-71
2023/10/15 00:18:17;;;;;;;7.13;1.90;;;9.50;99.90;;;-141.84;69.96;19773.19;5022409;28;20253;-69
2023/10/15 00:20:47;;;;;;;5.03;1.50;;;9.50;99.90;;;-141.84;69.30;19736.59;5022511;28;20397;-70
2023/10/15 00:23:15;;;;;;;7.00;1.77;;;9.50;99.90;;;-141.84;69.97;19752.88;5013807;28;20245;-70
2023/10/15 00:25:47;;;;;;;5.17;1.63;;;9.50;99.90;;;-141.84;69.71;19738.66;5022216;28;20261;-71
2023/10/15 00:28:17;;;;;;;8.00;1.90;;;9.50;99.90;;;-141.84;69.43;19779.28;5022159;28;20241;-70
2023/10/15 00:30:45;;;;;;;6.90;1.70;;;9.50;99.90;;;-141.84;69.27;19756.94;5021635;28;20232;-69
2023/10/15 00:33:14;;;;;;;5.80;1.47;;;9.50;99.90;;;-141.84;69.41;19769.13;5014087;28;20260;-70
2023/10/15 00:35:45;;;;;;;6.80;1.93;;;9.40;99.90;;;-141.84;70.11;19695.97;5021969;28;20741;-69
2023/10/15 00:38:17;;;;;;;5.47;1.73;;;9.40;99.90;;;-141.84;70.01;19754.91;5023524;28;20218;-70
2023/10/15 00:40:51;;;;;;;10.27;1.70;;;9.40;99.90;;;-141.84;69.41;19752.88;5026045;28;20241;-70
2023/10/15 00:43:22;;;;;;;4.97;1.50;;;9.40;99.90;;;-141.84;69.57;19781.31;5018480;28;20234;-70
2023/10/15 00:45:51;;;;;;;3.70;1.47;;;9.40;99.90;;;-141.84;69.35;19765.06;5026176;28;20245;-70
2023/10/15 00:48:24;;;;;;;6.60;1.80;;;9.40;99.90;;;-141.84;69.70;19744.75;5025594;28;20240;-70
2023/10/15 00:50:55;;;;;;;3.77;1.43;;;9.40;99.90;;;-141.84;70.49;19720.34;5026108;28;20205;-67
2023/10/15 00:53:29;;;;;;;7.97;2.03;;;9.40;99.90;;;-141.84;69.93;19767.09;5015617;28;20245;-70
2023/10/15 00:56:03;;;;;;;5.47;1.57;;;9.40;99.90;;;-141.84;69.75;19748.81;5006111;28;20230;-70
2023/10/15 00:58:38;;;;;;;4.53;1.70;;;9.40;99.90;;;-141.84;71.00;19728.47;5005746;28;20238;-70
2023/10/15 01:01:26;;;;;;;9.63;2.03;;;9.30;99.90;;;-141.84;71.02;19710.19;5017114;28;20304;-69
2023/10/15 01:03:59;;;;;;;6.60;1.70;;;9.30;99.90;;;-141.84;70.06;19722.38;5025015;28;20244;-70
2023/10/15 01:06:35;;;;;;;4.90;1.57;;;9.30;99.90;;;-141.84;70.89;19728.47;5025728;28;20276;-69
2023/10/15 01:09:10;;;;;;;9.03;1.77;;;9.20;99.90;;;-141.84;71.71;19700.03;5019314;28;20740;-67
2023/10/15 01:11:44;;;;;;;8.10;1.60;;;9.20;99.90;;;-141.84;71.16;19734.56;5026414;28;20263;-70
2023/10/15 01:14:17;;;;;;;6.77;1.80;;;9.20;99.90;;;-141.84;70.15;19736.59;5025327;28;20256;-70
2023/10/15 01:16:45;;;;;;;6.23;1.67;;;9.20;99.90;;;-141.84;69.68;19738.66;5007209;28;20254;-70
2023/10/15 01:19:18;;;;;;;7.03;2.03;;;9.30;99.90;;;-141.84;70.14;19698.00;5007927;28;20238;-69
2023/10/15 01:21:53;;;;;;;4.93;1.40;;;9.20;99.90;;;-141.84;71.12;19683.78;5025672;28;20234;-69
2023/10/15 01:24:22;;;;;;;5.40;1.73;;;9.20;99.90;;;-141.84;71.24;19712.22;5025242;28;20222;-70
2023/10/15 01:27:00;;;;;;;6.33;1.73;;;9.10;99.90;;;-141.84;71.46;19702.06;5024652;28;20228;-71
2023/10/15 01:29:33;;;;;;;4.63;1.70;;;9.10;99.90;;;-141.84;71.52;19704.09;5021173;28;20619;-69
2023/10/15 01:32:03;;;;;;;6.33;1.93;;;9.00;99.90;;;-141.84;71.43;19695.97;5025076;28;20232;-68
2023/10/15 01:34:37;;;;;;;8.17;2.10;;;9.10;99.90;;;-141.84;71.30;19677.66;5025174;28;20343;-69
2023/10/15 01:37:15;;;;;;;4.60;1.77;;;9.00;99.90;;;-141.84;72.44;19677.66;5017394;28;20751;-70
2023/10/15 01:39:47;;;;;;;7.20;1.70;;;9.00;99.90;;;-141.84;72.46;19663.44;5024981;28;20264;-69
2023/10/15 01:45:30;;;;;;;4.77;1.63;;;8.90;99.90;;;-141.84;73.25;19700.03;4996313;28;20211;-68
2023/10/15 01:48:05;;;;;;;5.87;1.73;;;8.80;99.90;;;-141.84;72.34;19702.06;5004833;28;20618;-68
2023/10/15 01:50:41;;;;;;;7.73;1.83;;;8.80;99.90;;;-141.84;73.02;19622.81;5015023;28;20588;-71
2023/10/15 01:53:10;;;;;;;4.17;1.93;;;8.80;99.90;;;-141.84;73.54;19639.06;5016453;28;20225;-70
2023/10/15 01:55:52;;;;;;;8.00;2.47;;;8.80;99.90;;;-141.84;73.55;19649.22;5024574;28;20229;-70
2023/10/15 01:58:30;;;;;;;9.73;2.50;;;8.70;99.90;;;-141.84;73.17;19614.66;5025019;28;20580;-71
2023/10/15 02:01:13;;;;;;;7.37;2.00;;;8.70;99.90;;;-141.84;73.26;19641.09;5024798;28;20717;-69
2023/10/15 02:03:42;;;;;;;7.60;2.20;;;8.60;99.90;;;-141.84;74.52;19596.38;5024293;28;20708;-69
2023/10/15 02:06:10;;;;;;;7.50;2.20;;;8.60;99.90;;;-141.84;74.73;19602.47;5023794;28;20232;-70
2023/10/15 02:08:39;;;;;;;7.20;2.37;;;8.60;99.90;;;-141.84;75.49;19635.00;5024970;28;20260;-70
2023/10/15 02:11:21;;;;;;;5.77;2.60;;;8.50;99.90;;;-141.84;74.52;19610.59;5016656;28;20237;-70
2023/10/15 02:13:55;;;;;;;6.73;2.30;;;8.50;99.90;;;-141.84;74.78;19651.25;5024682;28;20269;-70
2023/10/15 02:16:29;;;;;;;5.33;2.00;;;8.50;99.90;;;-141.84;73.49;19610.59;5020518;28;20233;-69
2023/10/15 02:18:59;;;;;;;3.77;2.40;;;8.50;99.90;;;-141.84;74.55;19580.13;5024123;28;20229;-70
2023/10/15 02:21:31;;;;;;;7.87;2.33;;;8.50;99.90;;;-141.84;74.36;19620.78;5017991;28;20229;-68
2023/10/15 02:24:08;;;;;;;8.17;3.20;;;8.50;99.90;;;-141.84;74.26;19588.25;5024405;28;20214;-70
2023/10/15 02:26:37;;;;;;;5.13;2.30;;;8.40;99.90;;;-141.84;74.20;19590.28;5024434;28;20225;-70
2023/10/15 02:29:07;;;;;;;6.00;2.30;;;8.40;99.90;;;-141.84;74.33;19582.16;5016247;28;20238;-69
2023/10/15 02:31:41;;;;;;;6.67;2.60;;;8.40;99.90;;;-141.84;74.75;19565.91;5024260;28;20312;-70
2023/10/15 02:34:14;;;;;;;7.13;1.70;;;8.40;99.90;;;-141.84;73.36;19624.84;5023937;28;20540;-69
2023/10/15 02:36:43;;;;;;;5.20;2.00;;;8.40;99.90;;;-141.84;73.42;19594.34;5023716;28;20244;-70
2023/10/15 02:39:13;;;;;;;8.00;1.97;;;8.50;99.90;;;-141.84;72.62;19630.94;5015862;28;20677;-70
2023/10/15 02:41:42;;;;;;;6.67;1.93;;;8.50;99.90;;;-141.84;73.12;19620.78;5024157;28;20332;-69
2023/10/15 02:44:13;;;;;;;6.47;1.57;;;8.50;99.90;;;-141.84;73.48;19606.53;5023826;28;20325;-70
2023/10/15 02:46:47;;;;;;;6.10;1.87;;;8.40;99.90;;;-141.84;72.96;19569.97;5014660;28;20231;-70
2023/10/15 02:49:17;;;;;;;7.30;2.00;;;8.40;99.90;;;-141.84;73.03;19590.28;5007163;28;20230;-69
2023/10/15 02:51:47;;;;;;;5.87;1.60;;;8.40;99.90;;;-141.84;72.85;19610.59;5023676;28;20238;-69
2023/10/15 02:54:27;;;;;;;3.20;1.23;;;8.40;99.90;;;-141.84;72.74;19580.13;5023855;28;20233;-70
2023/10/15 02:56:56;;;;;;;6.80;1.67;;;8.40;99.90;;;-141.84;72.51;19602.47;5023625;28;20571;-69
2023/10/15 02:59:29;;;;;;;4.20;1.60;;;8.40;99.90;;;-141.84;72.50;19598.41;5016408;28;20288;-69
2023/10/15 03:02:06;;;;;;;7.93;1.70;;;8.40;99.90;;;-141.84;71.55;19598.41;5023830;28;20230;-71
2023/10/15 03:04:37;;;;;;;6.70;1.77;;;8.50;99.90;;;-141.84;72.39;19614.66;5022472;28;20241;-69
2023/10/15 03:07:19;;;;;;;5.93;2.33;;;8.40;99.90;;;-141.84;72.43;19596.38;5015564;28;20264;-68
2023/10/15 03:09:51;;;;;;;6.60;1.80;;;8.30;99.90;;;-141.84;72.98;19578.09;5003948;28;20594;-70
2023/10/15 03:12:19;;;;;;;7.70;2.20;;;8.30;99.90;;;-141.84;73.37;19559.81;5003729;28;20310;-70
2023/10/15 03:14:49;;;;;;;5.37;1.77;;;8.30;99.90;;;-141.84;73.41;19574.03;5008147;28;20234;-70
2023/10/15 03:17:25;;;;;;;4.57;1.90;;;8.30;99.90;;;-141.84;72.50;19565.91;4996172;28;20334;-70
2023/10/15 03:19:55;;;;;;;5.30;1.90;;;8.30;99.90;;;-141.84;71.99;19600.44;5021098;28;20732;-70
2023/10/15 03:22:25;;;;;;;5.00;1.90;;;8.30;99.90;;;-141.84;72.18;19574.03;5023476;28;20308;-70
2023/10/15 03:24:56;;;;;;;4.60;1.80;;;8.30;99.90;;;-141.84;72.78;19578.09;5023501;28;20248;-70
2023/10/15 03:27:26;;;;;;;6.70;2.27;;;8.30;99.90;;;-141.84;71.90;19574.03;5015271;28;20242;-70
2023/10/15 03:29:56;;;;;;;6.27;2.20;;;8.20;99.90;;;-141.84;72.41;19561.84;5023413;28;20213;-70
2023/10/15 03:32:30;;;;;;;5.60;2.13;;;8.20;99.90;;;-141.84;72.36;19541.50;5023786;28;20209;-69
2023/10/15 03:35:05;;;;;;;4.97;1.83;;;8.20;99.90;;;-141.84;72.62;19565.91;5023140;28;20260;-70
2023/10/15 03:37:38;;;;;;;5.53;2.00;;;8.20;99.90;;;-141.84;73.53;19565.91;5023334;28;20260;-69
2023/10/15 03:40:13;;;;;;;4.60;1.83;;;8.10;99.90;;;-141.84;72.18;19569.97;5022775;28;20233;-70
2023/10/15 03:42:41;;;;;;;7.87;2.07;;;8.10;99.90;;;-141.84;72.39;19559.81;5022683;28;20230;-69
2023/10/15 03:45:16;;;;;;;5.97;2.00;;;8.20;99.90;;;-141.84;72.27;19561.84;5015524;28;20201;-70
2023/10/15 03:47:47;;;;;;;6.47;1.77;;;8.20;99.90;;;-141.84;72.10;19588.25;5023148;28;20712;-70
2023/10/15 03:50:15;;;;;;;6.27;2.07;;;8.10;99.90;;;-141.84;72.14;19553.72;5022550;28;20244;-69
2023/10/15 03:52:44;;;;;;;7.47;2.10;;;8.10;99.90;;;-141.84;71.59;19594.34;5022569;28;20240;-68
2023/10/15 03:55:13;;;;;;;3.20;1.70;;;8.10;99.90;;;-141.84;72.71;19543.53;5013129;28;20253;-69
2023/10/15 03:57:41;;;;;;;5.67;1.70;;;8.10;99.90;;;-141.84;72.41;19545.56;5022550;28;20261;-70
2023/10/15 04:00:26;;;;;;;8.23;1.53;;;8.10;99.90;;;-141.84;72.67;19543.53;5022614;28;20229;-70
2023/10/15 04:03:01;;;;;;;3.47;1.50;;;8.00;99.90;;;-141.84;73.54;19525.25;5022076;28;20744;-68
2023/10/15 04:05:32;;;;;;;6.97;1.47;;;8.00;99.90;;;-141.84;73.62;19519.16;5022396;28;20595;-69
2023/10/15 04:08:01;;;;;;;6.67;1.63;;;7.90;99.90;;;-141.84;72.85;19539.47;5022225;28;20640;-70
2023/10/15 04:10:33;;;;;;;9.07;1.60;;;7.90;99.90;;;-141.84;71.83;19543.53;5022480;28;20239;-71
2023/10/15 04:13:04;;;;;;;4.70;1.77;;;8.00;99.90;;;-141.84;71.79;19541.50;5021283;28;20593;-70
2023/10/15 04:15:35;;;;;;;6.60;1.90;;;8.00;99.90;;;-141.84;72.01;19523.22;5021230;28;20312;-69
2023/10/15 04:18:04;;;;;;;7.67;2.07;;;8.00;99.90;;;-141.84;72.29;19531.34;5022282;28;20276;-69
2023/10/15 04:20:35;;;;;;;6.37;1.50;;;7.90;99.90;;;-141.84;72.18;19551.69;5022549;28;20213;-70
2023/10/15 04:23:04;;;;;;;5.43;1.50;;;7.90;99.90;;;-141.84;72.32;19541.50;5019133;28;20354;-69
2023/10/15 04:25:33;;;;;;;6.73;1.60;;;7.90;99.90;;;-141.84;71.73;19549.63;5021838;28;20236;-70
2023/10/15 04:28:11;;;;;;;6.63;1.70;;;8.00;99.90;;;-141.84;71.69;19533.38;5022266;28;20229;-70
2023/10/15 04:30:42;;;;;;;6.47;1.83;;;7.90;99.90;;;-141.84;71.95;19561.84;5022518;28;20291;-70
2023/10/15 04:33:13;;;;;;;6.30;1.50;;;7.90;99.90;;;-141.84;71.99;19549.63;5014693;28;20212;-70
2023/10/15 04:35:42;;;;;;;6.53;2.03;;;7.80;99.90;;;-141.84;72.04;19557.78;5023335;28;20301;-70
2023/10/15 04:38:18;;;;;;;4.17;1.33;;;7.80;99.90;;;-141.84;72.59;19515.09;5021037;28;20226;-70
2023/10/15 04:40:59;;;;;;;4.57;1.93;;;7.80;99.90;;;-141.84;72.64;19513.06;5021478;28;20774;-69
2023/10/15 04:43:29;;;;;;;4.43;1.67;;;7.70;99.90;;;-141.84;73.57;19537.44;5016045;28;20312;-69
2023/10/15 04:46:02;;;;;;;5.20;1.83;;;7.70;99.90;;;-141.84;72.56;19533.38;5019756;28;20232;-69
2023/10/15 04:48:32;;;;;;;4.73;1.57;;;7.80;99.90;;;-141.84;71.74;19563.88;5021882;28;20611;-69
2023/10/15 04:51:04;;;;;;;7.50;1.77;;;7.80;99.90;;;-141.84;72.11;19543.53;5022062;28;20209;-69
2023/10/15 04:53:33;;;;;;;7.10;1.70;;;7.90;99.90;;;-141.84;72.18;19525.25;5022685;28;20217;-69
2023/10/15 04:56:03;;;;;;;5.53;1.60;;;7.80;99.90;;;-141.84;73.08;19496.81;5021999;28;20261;-68
2023/10/15 04:58:32;;;;;;;6.97;1.40;;;7.70;99.90;;;-141.84;73.09;19511.03;5021963;28;20245;-69
2023/10/15 05:01:04;;;;;;;4.10;1.60;;;7.70;99.90;;;-141.84;72.08;19559.81;5021749;28;20252;-69
2023/10/15 05:03:33;;;;;;;5.27;1.60;;;7.40;99.90;;;-141.84;71.98;19535.41;5019202;28;20333;-70
2023/10/15 05:06:02;;;;;;;4.27;1.53;;;7.90;99.90;;;-141.84;72.42;19511.03;5021603;28;20216;-69
2023/10/15 05:08:32;;;;;;;8.27;2.00;;;7.70;99.90;;;-141.84;72.55;19537.44;5022347;28;20218;-69
2023/10/15 05:11:00;;;;;;;8.37;1.50;;;7.60;99.90;;;-141.84;72.57;19519.16;5021914;28;20317;-70
2023/10/15 05:13:28;;;;;;;7.20;1.77;;;7.60;99.90;;;-141.84;72.72;19529.31;5016657;28;20248;-69
2023/10/15 05:15:57;;;;;;;3.80;1.53;;;7.60;99.90;;;-141.84;73.43;19509.00;5011277;28;20638;-69
2023/10/15 05:18:29;;;;;;;6.33;1.60;;;7.60;99.90;;;-141.84;72.23;19525.25;5006217;28;20689;-69
2023/10/15 05:20:58;;;;;;;5.30;1.67;;;7.60;99.90;;;-141.84;72.20;19488.69;5023459;28;20297;-69
2023/10/15 05:23:26;;;;;;;4.00;1.80;;;7.60;99.90;;;-141.84;72.63;19486.66;5017004;28;20214;-69
2023/10/15 05:25:56;;;;;;;5.40;1.90;;;7.50;99.90;;;-141.84;72.84;19494.78;5026580;28;20240;-69
2023/10/15 05:28:26;;;;;;;5.03;1.73;;;7.50;99.90;;;-141.84;72.69;19506.97;5027200;28;20712;-70
2023/10/15 05:30:57;;;;;;;3.63;1.70;;;7.50;99.90;;;-141.84;73.75;19478.50;5027154;28;20698;-70
2023/10/15 05:33:28;;;;;;;6.03;1.50;;;7.50;99.90;;;-141.84;72.94;19523.22;5019328;28;20240;-69
2023/10/15 05:35:57;;;;;;;5.37;1.80;;;7.50;99.90;;;-141.84;73.17;19488.69;5013777;28;20221;-68
2023/10/15 05:38:27;;;;;;;4.53;1.70;;;7.40;99.90;;;-141.84;73.63;19478.50;5010946;28;20233;-69
2023/10/15 05:41:00;;;;;;;5.47;1.70;;;7.40;99.90;;;-141.84;74.14;19470.38;5026880;28;20234;-70
2023/10/15 05:43:28;;;;;;;4.40;2.30;;;7.30;99.90;;;-141.84;74.32;19460.22;5022300;28;20221;-69
2023/10/15 05:45:57;;;;;;;7.47;2.10;;;7.30;99.90;;;-141.84;73.45;19488.69;5027051;28;20341;-70
2023/10/15 05:48:26;;;;;;;4.67;1.53;;;7.30;99.90;;;-141.84;73.82;19502.91;5026593;28;20272;-68
2023/10/15 05:50:55;;;;;;;9.73;2.03;;;7.30;99.90;;;-141.84;73.73;19480.53;5026500;28;20206;-69
2023/10/15 05:53:24;;;;;;;5.03;1.80;;;7.40;99.90;;;-141.84;73.60;19476.47;5019743;28;21042;-70
2023/10/15 05:55:52;;;;;;;5.03;2.13;;;7.40;99.90;;;-141.84;73.73;19474.44;5026218;28;20261;-69
2023/10/15 05:58:20;;;;;;;5.40;1.70;;;7.50;99.90;;;-141.84;73.29;19486.66;5026789;28;20269;-70
2023/10/15 06:00:50;;;;;;;6.27;1.67;;;7.50;99.90;;;-141.84;72.10;19525.25;5026687;28;20229;-69
2023/10/15 06:03:19;;;;;;;5.17;2.00;;;7.60;99.90;;;-141.84;71.38;19523.22;5017122;28;20225;-68
2023/10/15 06:05:48;;;;;;;8.20;1.87;;;7.70;99.90;;;-141.84;72.29;19537.44;5026253;28;20218;-69
2023/10/15 06:08:18;;;;;;;4.80;1.50;;;7.80;99.90;;;-141.84;71.64;19527.28;5025763;28;20234;-70
2023/10/15 06:10:46;;;;;;;7.03;1.97;;;7.80;99.90;;;-141.84;70.77;19576.06;5026116;28;20307;-69
2023/10/15 06:13:15;;;;;;;3.50;1.70;;;7.90;99.90;;;-141.84;69.62;19586.22;5017945;28;20230;-69
2023/10/15 06:15:43;;;;;;;6.93;1.73;;;8.10;99.90;;;-141.84;70.69;19557.78;5025983;28;20565;-71
2023/10/15 06:18:11;;;;;;;5.73;2.00;;;8.20;99.90;;;-141.84;69.47;19628.91;5026359;28;20214;-70
2023/10/15 06:20:40;;;;;;;7.20;1.83;;;8.30;99.90;;;-141.84;67.89;19616.72;5026569;28;20631;-70
2023/10/15 06:23:09;;;;;;;5.97;1.70;;;8.50;99.90;;;-141.84;67.58;19659.38;5018859;28;20237;-69
2023/10/15 06:25:38;;;;;;;5.97;1.70;;;8.60;99.90;;;-141.84;67.10;19675.63;5025797;28;20317;-69
2023/10/15 06:28:07;;;;;;;5.37;2.10;;;8.80;99.90;;;-141.84;66.68;19661.41;5025524;28;20234;-69
2023/10/15 06:30:36;;;;;;;6.43;1.77;;;8.80;99.90;;;-141.84;66.80;19685.81;5026027;28;20253;-70
2023/10/15 06:33:04;;;;;;;3.40;1.77;;;9.00;99.90;;;-141.84;66.05;19726.44;5003058;28;20210;-69
2023/10/15 06:35:33;;;;;;;5.40;2.37;;;9.10;99.90;;;-141.84;65.86;19718.31;5016250;28;20213;-70
2023/10/15 06:38:01;;;;;;;5.10;1.77;;;9.10;99.90;;;-141.84;65.42;19720.34;5025249;28;20447;-69
2023/10/15 06:40:31;;;;;;;8.97;1.87;;;9.30;99.90;;;-141.84;65.63;19748.81;5025425;28;20259;-69
2023/10/15 06:43:01;;;;;;;4.30;1.70;;;9.30;99.90;;;-141.84;66.28;19744.75;5025527;28;20275;-69
2023/10/15 06:45:31;;;;;;;7.63;2.30;;;9.40;99.90;;;-141.84;64.87;19752.88;5024686;28;20313;-70
2023/10/15 06:48:01;;;;;;;7.23;2.30;;;9.50;99.90;;;-141.84;65.00;19761.00;5024975;28;20254;-69
2023/10/15 06:50:30;;;;;;;7.83;2.00;;;9.50;99.90;;;-141.84;65.37;19748.81;5025476;28;20225;-70
2023/10/15 06:53:01;;;;;;;6.07;2.03;;;9.40;99.90;;;-141.84;65.46;19718.31;5025725;28;20230;-71
2023/10/15 06:55:31;;;;;;;6.67;2.33;;;9.50;99.90;;;-141.84;65.77;19773.19;5020933;28;20234;-70
2023/10/15 06:58:01;;;;;;;6.53;2.20;;;9.40;99.90;;;-141.84;65.98;19716.28;5023971;28;20240;-70
2023/10/15 07:00:31;;;;;;;6.53;2.10;;;9.50;99.90;;;-141.84;65.57;19742.72;5023463;28;20240;-71
2023/10/15 07:03:00;;;;;;;8.07;2.20;;;9.40;99.90;;;-141.84;65.42;19750.84;5023278;28;20194;-70
2023/10/15 07:05:28;;;;;;;6.90;2.50;;;9.50;99.90;;;-141.84;65.63;19736.59;5018225;28;20206;-70
2023/10/15 07:07:57;;;;;;;7.17;2.13;;;9.60;99.90;;;-141.84;65.19;19752.88;5023544;28;20226;-69
2023/10/15 07:10:27;;;;;;;5.00;2.40;;;9.60;99.90;;;-141.84;65.13;19761.00;5023558;28;20287;-69
2023/10/15 07:12:58;;;;;;;7.07;2.40;;;9.60;99.90;;;-141.84;65.28;19756.94;5023577;28;20230;-69
2023/10/15 07:15:26;;;;;;;7.50;2.37;;;9.70;99.90;;;-141.84;65.95;19761.00;5015149;28;20721;-70
2023/10/15 07:17:54;;;;;;;8.17;2.43;;;9.70;99.90;;;-141.84;65.12;19777.25;5023711;28;20210;-69
2023/10/15 07:20:26;;;;;;;6.10;2.33;;;9.70;99.90;;;-141.84;65.25;19807.75;5021985;28;20319;-70
2023/10/15 07:22:57;;;;;;;5.50;2.63;;;9.70;99.90;;;-141.84;64.84;19803.69;5023750;28;20288;-69
2023/10/15 07:25:27;;;;;;;6.80;2.63;;;9.80;99.90;;;-141.84;64.29;19815.88;5015610;28;20237;-70
2023/10/15 07:27:59;;;;;;;7.10;2.97;;;9.90;99.90;;;-141.84;64.40;19809.78;5023372;28;20245;-70
2023/10/15 07:30:30;;;;;;;5.23;2.57;;;10.00;99.90;;;-141.84;65.11;19779.28;5023052;28;20276;-70
2023/10/15 07:32:59;;;;;;;5.97;2.87;;;9.90;99.90;;;-141.84;65.09;19809.78;5022960;28;20292;-68
2023/10/15 07:35:30;;;;;;;7.27;2.73;;;10.00;99.90;;;-141.84;64.53;19862.63;5017077;28;20356;-69
2023/10/15 07:38:02;;;;;;;5.60;2.37;;;10.10;99.90;;;-141.84;64.40;19819.94;5023439;28;20284;-70
2023/10/15 07:40:32;;;;;;;7.10;3.00;;;10.10;99.90;;;-141.84;64.74;19795.53;5022882;28;20257;-69
2023/10/15 07:43:03;;;;;;;7.47;2.70;;;10.00;99.90;;;-141.84;64.17;19842.28;5023324;28;20413;-70
2023/10/15 07:45:33;;;;;;;6.23;2.47;;;10.10;99.90;;;-141.84;64.49;19856.53;5022901;28;20233;-69
2023/10/15 07:48:05;;;;;;;6.83;2.87;;;10.10;99.90;;;-141.84;64.22;19880.91;5022633;28;20241;-68
2023/10/15 07:50:36;;;;;;;7.83;2.90;;;10.20;99.90;;;-141.84;64.78;19860.59;5003132;28;20241;-68
2023/10/15 07:53:05;;;;;;;12.50;3.13;;;10.10;99.90;;;-141.84;63.82;19856.53;5000532;28;20272;-70
2023/10/15 07:55:34;;;;;;;8.50;3.00;;;10.20;99.90;;;-141.84;64.53;19858.56;5004276;28;20272;-70
2023/10/15 07:58:04;;;;;;;7.63;2.73;;;10.20;99.90;;;-141.84;63.93;19889.03;5004627;28;20769;-69
2023/10/15 08:00:33;;;;;;;8.73;2.90;;;10.20;99.90;;;-141.84;62.95;19872.78;5016661;28;20283;-70
2023/10/15 08:03:04;;;;;;;8.17;3.27;;;10.40;99.90;;;-141.84;63.94;19868.72;5022979;28;20206;-69
2023/10/15 08:05:33;;;;;;;5.60;3.13;;;10.20;99.90;;;-141.84;63.07;19866.69;5023802;28;20225;-69
2023/10/15 08:08:06;;;;;;;7.17;2.90;;;10.20;99.90;;;-141.84;62.63;19884.97;5022318;28;20261;-69
2023/10/15 08:10:34;;;;;;;6.73;2.60;;;10.40;99.90;;;-141.84;62.48;19878.88;5022348;28;20234;-69
2023/10/15 08:13:08;;;;;;;5.50;2.70;;;10.40;99.90;;;-141.84;63.33;19840.25;5015104;28;20218;-64
2023/10/15 08:15:38;;;;;;;7.97;3.00;;;10.30;99.90;;;-141.84;63.65;19856.53;5021466;28;20698;-70
2023/10/15 08:18:07;;;;;;;5.57;2.73;;;10.30;99.90;;;-141.84;63.30;19854.50;5021811;28;20278;-59
2023/10/15 08:20:35;;;;;;;4.47;2.37;;;10.20;99.90;;;-141.84;62.68;19874.81;5022193;28;20229;-60
2023/10/15 08:23:04;;;;;;;5.20;2.50;;;10.20;99.90;;;-141.84;63.26;19838.22;5019215;28;20713;-59
2023/10/15 08:25:32;;;;;;;6.30;2.63;;;10.10;99.90;;;-141.84;63.07;19880.91;5019896;28;20226;-59
2023/10/15 08:28:03;;;;;;;7.13;3.03;;;10.30;99.90;;;-141.84;62.32;19880.91;5022542;28;20234;-60
2023/10/15 08:30:34;;;;;;;6.07;2.63;;;10.40;99.90;;;-141.84;61.37;19889.03;5023266;28;20253;-60
2023/10/15 08:33:10;;;;;;;7.07;2.53;;;10.40;99.90;;;-141.84;62.01;19929.69;5021768;28;20229;-58
2023/10/15 08:35:40;;;;;;;7.40;2.63;;;10.30;99.90;;;-141.84;60.44;19899.19;5023394;28;20241;-70
2023/10/15 08:38:08;;;;;;;4.83;2.13;;;10.60;99.90;;;-141.84;59.81;19945.94;5023909;28;20238;-70
2023/10/15 08:40:40;;;;;;;3.97;2.40;;;10.80;99.90;;;-141.84;59.93;19972.38;5022366;28;20344;-71
2023/10/15 08:43:14;;;;;;;4.40;2.30;;;10.90;99.90;;;-141.84;59.28;19998.78;5014697;28;20226;-70
2023/10/15 08:45:45;;;;;;;4.17;2.40;;;11.10;99.90;;;-141.84;58.92;19984.56;5020257;28;20325;-70
2023/10/15 08:48:15;;;;;;;7.20;2.60;;;11.30;99.90;;;-141.84;58.18;20071.97;5022115;28;20252;-71
2023/10/15 08:50:46;;;;;;;6.13;2.63;;;11.30;99.90;;;-141.84;57.50;20067.88;5021365;28;20705;-69
2023/10/15 08:53:16;;;;;;;6.70;2.83;;;11.50;99.90;;;-141.84;57.13;20092.28;5013485;28;20448;-67
2023/10/15 08:55:45;;;;;;;8.70;3.00;;;11.60;99.90;;;-141.84;57.21;20076.03;5021838;28;20222;-67
2023/10/15 08:58:18;;;;;;;5.03;2.00;;;11.60;99.90;;;-141.84;57.67;20061.78;5022804;28;20240;-67
2023/10/15 09:00:53;;;;;;;5.63;2.60;;;11.50;99.90;;;-141.84;57.70;20021.16;5024709;28;20222;-68
2023/10/15 09:03:23;;;;;;;5.53;2.90;;;11.50;99.90;;;-141.84;56.88;20069.94;5017086;28;20237;-66
2023/10/15 09:05:52;;;;;;;3.47;2.00;;;11.50;99.90;;;-141.84;57.33;20078.06;5025323;28;20213;-70
2023/10/15 09:08:22;;;;;;;4.63;2.40;;;11.40;99.90;;;-141.84;57.79;20041.47;5025238;28;20304;-68
2023/10/15 09:10:52;;;;;;;4.27;2.50;;;11.40;99.90;;;-141.84;58.23;20049.59;5025425;28;20237;-68
2023/10/15 09:13:22;;;;;;;3.43;2.43;;;11.40;99.90;;;-141.84;58.75;20061.78;5018252;28;20660;-68
2023/10/15 09:15:55;;;;;;;3.50;2.00;;;11.50;99.90;;;-141.84;57.68;20094.31;5021788;28;20333;-69
2023/10/15 09:18:26;;;;;;;3.87;2.10;;;11.50;99.90;;;-141.84;57.21;20084.16;5022642;28;20230;-67
2023/10/15 09:20:58;;;;;;;5.33;3.07;;;11.60;99.90;;;-141.84;56.32;20071.97;5023332;28;20559;-68
2023/10/15 09:23:31;;;;;;;4.37;2.17;;;11.60;99.90;;;-141.84;55.91;20063.81;5017615;28;20252;-67
2023/10/15 09:26:01;;;;;;;4.90;1.90;;;11.60;99.90;;;-141.84;56.20;20084.16;5024741;28;20670;-69
2023/10/15 09:28:30;;;;;;;3.60;1.90;;;11.60;99.90;;;-141.84;56.57;20096.34;5024265;28;20324;-68
2023/10/15 09:31:09;;;;;;;3.83;1.70;;;11.80;99.90;;;-141.84;56.18;20118.69;5025136;28;20226;-68
2023/10/15 09:33:40;;;;;;;4.60;2.20;;;11.90;99.90;;;-141.84;55.59;20153.25;5025333;28;20233;-67
2023/10/15 09:36:09;;;;;;;4.63;2.00;;;11.90;99.90;;;-141.84;54.67;20183.75;5025503;28;20293;-67
2023/10/15 09:38:37;;;;;;;3.27;2.20;;;12.20;99.90;;;-141.84;53.80;20244.72;5022913;28;20305;-67
2023/10/15 09:41:06;;;;;;;4.07;2.40;;;12.40;99.90;;;-141.84;53.95;20240.66;5017126;28;20218;-67
2023/10/15 09:43:35;;;;;;;5.22;2.55;;;12.60;99.90;;;-141.84;53.34;20277.25;5023438;28;20284;-68
2023/10/15 09:46:07;;;;;;;6.53;3.15;;;12.70;99.90;;;-141.84;52.71;20260.97;5023950;28;20239;-67
2023/10/15 09:48:36;;;;;;;5.13;2.50;;;12.60;99.90;;;-141.84;53.18;20212.19;5023880;28;20229;-69
2023/10/15 09:51:07;;;;;;;6.37;3.50;;;12.50;99.90;;;-141.84;53.44;20246.75;5015833;28;20265;-67
2023/10/15 09:53:36;;;;;;;4.57;2.37;;;12.50;99.90;;;-141.84;54.01;20234.56;5024118;28;20754;-68
2023/10/15 09:56:08;;;;;;;4.33;2.30;;;12.40;99.90;;;-141.84;55.21;20157.31;5024921;28;20292;-68
2023/10/15 09:58:38;;;;;;;5.87;2.57;;;12.10;99.90;;;-141.84;56.26;20149.19;5024930;28;20716;-68
2023/10/15 10:01:25;;;;;;;4.30;2.23;;;12.00;99.90;;;-141.84;56.14;20155.28;5017697;28;20245;-67
2023/10/15 10:04:40;;;;;;;5.00;2.20;;;12.00;99.90;;;-141.84;55.08;20210.16;5022825;28;20790;-68
2023/10/15 10:07:38;;;;;;;4.25;2.50;;;12.10;99.90;;;-141.84;54.63;20179.69;5016868;28;20768;-68
2023/10/15 10:10:39;;;;;;;5.40;2.80;;;12.20;99.90;;;-141.84;53.91;20216.25;5024282;28;20230;-68
2023/10/15 10:13:55;;;;;;;5.93;2.93;;;12.30;99.90;;;-141.84;53.75;20224.41;5017304;28;20305;-67
2023/10/15 10:16:30;;;;;;;4.20;2.27;;;12.40;99.90;;;-141.84;53.48;20212.19;5018980;28;20737;-69
2023/10/15 10:18:59;;;;;;;7.90;2.53;;;12.40;99.90;;;-141.84;53.79;20224.41;5023896;28;20221;-67
2023/10/15 10:21:32;;;;;;;6.07;2.70;;;12.50;99.90;;;-141.84;53.37;20234.56;5017305;28;20308;-68
2023/10/15 10:24:02;;;;;;;3.45;2.08;;;12.50;99.90;;;-141.84;53.68;20236.59;5023929;28;20241;-69
2023/10/15 10:26:33;;;;;;;4.32;2.10;;;12.50;99.90;;;-141.84;54.44;20224.41;5025019;28;20209;-67
2023/10/15 10:29:02;;;;;;;5.73;1.93;;;12.40;99.90;;;-141.84;54.38;20236.59;5024536;28;20388;-67
2023/10/15 10:31:36;;;;;;;4.30;2.10;;;12.50;99.90;;;-141.84;54.83;20179.69;5020701;28;20234;-68